Accueil
METAR-TAF:

METAR-TAF

Aéroports :

Aéroport international Princess Juliana

Saint-Martin, Antilles néerlandaises

latitude: 18-03N, longitude: 063-07W, altitude: 4 m

Observation

Le bulletin a été fait il y a 1 heure et 0 minutes, à 00:00 UTC
Vent 7 kt de est/nord-est, variant entre nord-est et est
Température 28°C
Humidité 74%
Pression 1016 hPa
Visibilité 10 km ou plus
Quelques nuages à une hauteur de 2000 ft

METAR: TNCM 050000Z 07007KT 040V100 9999 FEW020 28/23 Q1016 NOSIG

Heure: 21:00 (01:00 UTC)

Prévision

Le bulletin a été fait il y a 1 heure et 20 minutes, à 23:40 UTC
Prévision valable du 05 à 00 UTC au 05 à 24 UTC
Vent 12 kt de est
Visibilité: 10 km
Nuages épars à une hauteur de 2000 ft

TAF: TNCM 042340Z 0500/0524 08012KT P6SM SCT020

Observations et prévisions météorologiques de plus de 4000 aéroports (messages METAR et TAF).

Les stations disponibles sont représentées par des disques jaunes et rouges sur la carte.

Passer la souris dessus pour voir le nom de la station.

Cliquer dessus pour voir les observations et prévisions météorologiques.

Pour changer de carte: cliquez sur les boutons verts avec une croix noire pour zoomer, sur le bouton vert avec un tiret pour effectuer un zoom arrière, ou sur les flèches vertes pour les cartes adjacentes.


METAR-TAF: